Burney, California
Current Conditions -  °F | °C
As of 7:53 PM on Friday 28 Nov 2014 (Local Time) from KRDD Reporting Station
Light Rain Light Rain  
Wind Chill: 49°   Ceiling: 1800
Heat Index: 49°   Visibility: 1.2mi
Dew Point: 49°   Wind: 3mph
Humidity: 100%   Direction: 130°SE
Pressure: 29.83"   Gusts: NA
Location:  40.88°N, 121.66°W
Report Text: KRDD 290353Z 13003KT 1 1/4SM -RA BR BKN018 OVC023 09/09 A2983 RMK AO2 SLP100 P0006 T00940094
Loading
Personal Weather Stations






























Interactive Weather Map New forecast layout! Learn more

10-Day Weather Forecast

Advertisements
Track Severe Weather on mobile